createdAt,value
2018-11-28T00:00:36.181Z,98800.86
2018-11-28T00:03:07.380Z,98795.06
2018-11-28T00:05:36.903Z,98812.36
2018-11-28T00:08:06.510Z,98815.55
2018-11-28T00:10:36.053Z,98809.31
2018-11-28T00:13:05.673Z,98813.36
2018-11-28T00:15:35.189Z,98821.23
2018-11-28T00:18:04.773Z,98819.25
2018-11-28T00:20:34.313Z,98813.83
2018-11-28T00:23:03.838Z,98820.60
2018-11-28T00:25:33.337Z,98822.07
2018-11-28T00:28:02.852Z,98834.80
2018-11-28T00:30:32.401Z,98831.26
2018-11-28T00:33:01.913Z,98832.31
2018-11-28T00:35:31.409Z,98831.50
2018-11-28T00:38:00.954Z,98837.97
2018-11-28T00:40:30.484Z,98841.98
2018-11-28T00:42:59.985Z,98835.06
2018-11-28T00:45:29.524Z,98840.99
2018-11-28T00:47:59.032Z,98838.53
2018-11-28T00:50:28.744Z,98845.27
2018-11-28T00:52:58.277Z,98848.78
2018-11-28T00:55:27.796Z,98853.52
2018-11-28T00:57:57.316Z,98860.72
2018-11-28T01:00:27.653Z,98860.47
2018-11-28T01:02:57.185Z,98849.33
2018-11-28T01:05:26.678Z,98844.20
2018-11-28T01:07:56.488Z,98837.16
2018-11-28T01:10:26.295Z,98841.95
2018-11-28T01:12:55.878Z,98839.42
2018-11-28T01:15:25.412Z,98845.89
2018-11-28T01:17:54.984Z,98833.15
2018-11-28T01:20:24.656Z,98687.22
2018-11-28T01:22:54.161Z,98827.95
2018-11-28T01:25:23.812Z,98828.73
2018-11-28T01:27:53.354Z,98832.77
2018-11-28T01:30:24.701Z,98838.95
2018-11-28T01:32:54.204Z,98835.20
2018-11-28T01:35:23.796Z,98844.09
2018-11-28T01:37:53.264Z,98841.66
2018-11-28T01:40:24.524Z,98852.77
2018-11-28T01:42:54.163Z,98853.84
2018-11-28T01:45:24.334Z,98859.05
2018-11-28T01:47:53.862Z,98863.02
2018-11-28T01:50:23.422Z,98858.39
2018-11-28T01:52:52.884Z,98853.77
2018-11-28T01:55:23.012Z,98850.16
2018-11-28T01:57:52.620Z,98862.32
2018-11-28T02:00:25.108Z,98864.95
2018-11-28T02:02:59.605Z,98860.47
2018-11-28T02:05:29.145Z,98865.58
2018-11-28T02:07:58.711Z,98859.06
2018-11-28T02:10:28.190Z,98873.55
2018-11-28T02:12:57.695Z,98874.05
2018-11-28T02:15:27.817Z,98876.18
2018-11-28T02:17:58.096Z,98873.75
2018-11-28T02:20:27.580Z,98878.89
2018-11-28T02:22:57.109Z,98888.81
2018-11-28T02:25:26.612Z,98900.62
2018-11-28T02:27:56.092Z,98899.94
2018-11-28T02:30:25.633Z,98917.00
2018-11-28T02:32:55.134Z,98933.16
2018-11-28T02:35:24.658Z,98940.66
2018-11-28T02:37:54.145Z,98952.08
2018-11-28T02:40:23.674Z,98977.78
2018-11-28T02:42:53.170Z,98990.23
2018-11-28T02:45:23.141Z,98998.08
2018-11-28T02:47:53.076Z,98986.50
2018-11-28T02:50:22.568Z,98971.98
2018-11-28T02:52:52.095Z,98972.22
2018-11-28T02:55:21.555Z,98968.82
2018-11-28T02:57:51.261Z,98970.41
2018-11-28T03:00:23.744Z,98976.04
2018-11-28T03:02:53.448Z,98981.31
2018-11-28T03:05:23.001Z,98965.73
2018-11-28T03:07:52.525Z,98965.34
2018-11-28T03:10:22.990Z,98955.98
2018-11-28T03:12:52.652Z,98957.52
2018-11-28T03:15:28.514Z,98960.45
2018-11-28T03:17:59.004Z,98957.71
2018-11-28T03:20:28.540Z,98961.45
2018-11-28T03:22:58.029Z,98965.11
2018-11-28T03:25:27.587Z,98961.55
2018-11-28T03:27:57.085Z,98974.34
2018-11-28T03:30:26.637Z,98967.67
2018-11-28T03:32:56.158Z,98972.89
2018-11-28T03:35:25.693Z,98978.92
2018-11-28T03:37:55.177Z,98973.78
2018-11-28T03:40:24.730Z,98976.98
2018-11-28T03:42:54.223Z,98999.34
2018-11-28T03:45:23.748Z,99000.64
2018-11-28T03:47:53.260Z,99011.61
2018-11-28T03:50:22.778Z,99009.37
2018-11-28T03:52:52.274Z,99022.50
2018-11-28T03:55:21.792Z,99022.90
2018-11-28T03:57:51.408Z,99026.36
2018-11-28T04:00:21.834Z,99031.75
2018-11-28T04:02:51.686Z,99030.18
2018-11-28T04:05:21.254Z,99030.41
2018-11-28T04:07:50.753Z,99049.65
2018-11-28T04:10:20.270Z,99050.13
2018-11-28T04:12:49.752Z,99058.14
2018-11-28T04:15:21.840Z,99059.16
2018-11-28T04:17:51.329Z,99069.69
2018-11-28T04:20:21.774Z,99077.50
2018-11-28T04:22:51.397Z,99085.59
2018-11-28T04:25:21.929Z,99081.55
2018-11-28T04:27:51.686Z,99081.72
2018-11-28T04:30:25.017Z,99091.92
2018-11-28T04:32:55.418Z,99095.91
2018-11-28T04:35:25.129Z,99107.73
2018-11-28T04:37:54.609Z,99116.13
2018-11-28T04:40:24.144Z,99119.33
2018-11-28T04:42:53.631Z,99117.93
2018-11-28T04:45:23.871Z,99119.44
2018-11-28T04:47:54.406Z,99122.89
2018-11-28T04:50:24.028Z,99122.84
2018-11-28T04:52:53.550Z,99132.86
2018-11-28T04:55:23.118Z,99134.85
2018-11-28T04:57:52.712Z,99132.97
2018-11-28T05:00:24.191Z,99137.12
2018-11-28T05:02:54.732Z,99142.03
2018-11-28T05:05:24.302Z,99143.38
2018-11-28T05:07:54.083Z,99131.56
2018-11-28T05:10:24.545Z,99143.10
2018-11-28T05:12:54.472Z,99140.09
2018-11-28T05:15:25.801Z,99142.95
2018-11-28T05:17:55.468Z,99146.24
2018-11-28T05:20:25.897Z,99148.94
2018-11-28T05:22:55.422Z,99156.27
2018-11-28T05:25:25.857Z,99157.94
2018-11-28T05:27:59.841Z,99168.72
2018-11-28T05:30:30.173Z,99171.13
2018-11-28T05:32:59.920Z,99171.95
2018-11-28T05:35:37.344Z,99179.38
2018-11-28T05:38:09.338Z,99179.22
2018-11-28T05:40:38.852Z,99178.91
2018-11-28T05:43:08.392Z,99186.24
2018-11-28T05:45:37.916Z,99198.38
2018-11-28T05:48:07.443Z,99203.33
2018-11-28T05:50:36.973Z,99199.72
2018-11-28T05:53:06.533Z,99203.77
2018-11-28T05:55:36.066Z,99213.20
2018-11-28T05:58:06.165Z,99206.27
2018-11-28T06:00:37.138Z,99077.72
2018-11-28T06:03:10.365Z,99220.18
2018-11-28T06:05:41.807Z,99090.51
2018-11-28T06:08:11.329Z,99224.16
2018-11-28T06:10:40.885Z,99231.33
2018-11-28T06:13:10.442Z,99234.03
2018-11-28T06:15:39.940Z,99239.06
2018-11-28T06:18:09.902Z,99243.77
2018-11-28T06:20:39.397Z,99241.83
2018-11-28T06:23:09.056Z,99254.23
2018-11-28T06:25:38.796Z,99261.67
2018-11-28T06:28:08.418Z,99269.08
2018-11-28T06:30:38.036Z,99277.83
2018-11-28T06:33:07.584Z,99286.30
2018-11-28T06:35:37.145Z,99285.02
2018-11-28T06:38:06.701Z,99290.54
2018-11-28T06:40:36.306Z,99299.22
2018-11-28T06:43:06.032Z,99309.51
2018-11-28T06:45:36.099Z,99309.51
2018-11-28T06:48:05.829Z,99309.05
2018-11-28T06:50:35.416Z,99311.45
2018-11-28T06:53:05.007Z,99322.69
2018-11-28T06:55:34.544Z,99327.55
2018-11-28T06:58:04.035Z,99339.00
2018-11-28T07:00:33.573Z,99339.88
2018-11-28T07:03:03.096Z,99350.98
2018-11-28T07:05:32.640Z,99351.80
2018-11-28T07:08:02.156Z,99364.54
2018-11-28T07:10:32.002Z,99373.38
2018-11-28T07:13:01.520Z,99376.89
2018-11-28T07:15:31.120Z,99380.72
2018-11-28T07:19:10.826Z,99254.06
2018-11-28T07:21:40.421Z,99392.64
2018-11-28T07:24:09.969Z,99399.81
2018-11-28T07:26:39.573Z,99398.32
2018-11-28T07:29:09.061Z,99406.27
2018-11-28T07:31:38.885Z,99413.11
2018-11-28T07:34:08.500Z,99423.65
2018-11-28T07:36:38.217Z,99425.77
2018-11-28T07:39:08.061Z,99437.44
2018-11-28T07:41:37.793Z,99435.05
2018-11-28T07:44:07.539Z,99437.51
2018-11-28T07:46:37.119Z,99440.94
2018-11-28T07:49:06.881Z,99440.03
2018-11-28T07:51:36.907Z,99448.05
2018-11-28T07:54:07.072Z,99444.66
2018-11-28T07:56:36.671Z,99452.54
2018-11-28T07:59:06.529Z,99451.86
2018-11-28T08:01:36.380Z,99454.34
2018-11-28T08:04:06.577Z,99467.58
2018-11-28T08:06:36.248Z,99472.55
2018-11-28T08:09:07.293Z,99481.00
2018-11-28T08:11:38.134Z,99482.50
2018-11-28T08:14:06.887Z,99488.63
2018-11-28T08:16:36.791Z,99488.56
2018-11-28T08:19:06.736Z,99494.62
2018-11-28T08:21:36.375Z,99502.52
2018-11-28T08:24:06.595Z,99512.56
2018-11-28T08:26:36.228Z,99517.43
2018-11-28T08:29:06.137Z,99523.52
2018-11-28T08:31:35.838Z,99529.36
2018-11-28T08:34:05.625Z,99532.88
2018-11-28T08:36:35.234Z,99537.59
2018-11-28T08:39:05.987Z,99544.52
2018-11-28T08:41:35.633Z,99553.94
2018-11-28T08:44:05.468Z,99551.02
2018-11-28T08:46:35.145Z,99558.75
2018-11-28T08:49:04.888Z,99560.45
2018-11-28T08:51:34.525Z,99563.84
2018-11-28T08:54:04.173Z,99564.88
2018-11-28T08:56:33.775Z,99566.55
2018-11-28T08:59:03.449Z,99571.10
2018-11-28T09:01:33.220Z,99572.55
2018-11-28T09:04:02.793Z,99572.11
2018-11-28T09:06:32.410Z,99577.20
2018-11-28T09:09:02.133Z,99573.89
2018-11-28T09:11:32.927Z,99583.35
2018-11-28T09:14:04.596Z,99587.88
2018-11-28T09:16:32.341Z,99589.51
2018-11-28T09:19:01.940Z,99467.45
2018-11-28T09:21:31.619Z,99590.80
2018-11-28T09:24:01.161Z,99588.03
2018-11-28T09:26:30.791Z,99597.83
2018-11-28T09:29:00.433Z,99596.27
2018-11-28T09:31:30.230Z,99600.03
2018-11-28T09:33:59.947Z,99611.44
2018-11-28T09:36:29.973Z,99611.44
2018-11-28T09:38:59.599Z,99617.66
2018-11-28T09:41:29.292Z,99617.12
2018-11-28T09:43:58.901Z,99616.75
2018-11-28T09:46:28.497Z,99622.90
2018-11-28T09:48:58.136Z,99623.00
2018-11-28T09:51:27.809Z,99623.44
2018-11-28T09:53:57.520Z,99621.80
2018-11-28T09:56:27.167Z,99623.28
2018-11-28T09:58:56.877Z,99627.72
2018-11-28T10:01:26.458Z,99632.30
2018-11-28T10:03:56.030Z,99631.77
2018-11-28T10:06:25.714Z,99634.32
2018-11-28T10:08:55.409Z,99639.19
2018-11-28T10:11:25.082Z,99634.98
2018-11-28T10:13:54.722Z,99633.35
2018-11-28T10:16:24.273Z,99636.05
2018-11-28T10:18:53.861Z,99636.72
2018-11-28T10:21:23.462Z,99640.02
2018-11-28T10:23:53.218Z,99635.59
2018-11-28T10:26:22.841Z,99640.17
2018-11-28T10:28:52.587Z,99646.86
2018-11-28T10:31:22.211Z,99649.77
2018-11-28T10:33:52.008Z,99659.31
2018-11-28T10:36:21.621Z,99662.98
2018-11-28T10:38:51.308Z,99662.73
2018-11-28T10:41:20.856Z,99664.02
2018-11-28T10:43:50.497Z,99658.55
2018-11-28T10:46:20.110Z,99667.15
2018-11-28T10:48:49.654Z,99668.28
2018-11-28T10:51:19.381Z,99669.49
2018-11-28T10:53:48.963Z,99668.39
2018-11-28T10:56:18.526Z,99670.09
2018-11-28T10:58:48.255Z,99676.84
2018-11-28T11:01:23.933Z,99679.55
2018-11-28T11:03:56.651Z,99686.83
2018-11-28T11:06:31.246Z,99683.77
2018-11-28T11:09:05.981Z,99689.25
2018-11-28T11:11:40.528Z,99691.13
2018-11-28T11:14:15.199Z,99687.46
2018-11-28T11:16:44.781Z,99691.30
2018-11-28T11:19:14.508Z,99691.30
2018-11-28T11:21:44.150Z,99690.58
2018-11-28T11:24:13.800Z,99700.01
2018-11-28T11:26:43.437Z,99699.56
2018-11-28T11:29:13.002Z,99701.44
2018-11-28T11:31:42.612Z,99706.30
2018-11-28T11:34:12.315Z,99715.86
2018-11-28T11:36:41.946Z,99714.25
2018-11-28T11:39:11.484Z,99694.80
2018-11-28T11:41:41.116Z,99717.95
2018-11-28T11:44:10.685Z,99720.20
2018-11-28T11:46:40.244Z,99719.77
2018-11-28T11:49:09.884Z,99716.33
2018-11-28T11:51:39.474Z,99606.23
2018-11-28T11:54:09.362Z,99732.00
2018-11-28T11:56:40.119Z,99730.94
2018-11-28T11:59:09.912Z,99734.09
2018-11-28T12:01:39.630Z,99621.36
2018-11-28T12:04:09.427Z,99750.09
2018-11-28T12:06:39.124Z,99752.80
2018-11-28T12:09:10.005Z,99644.19
2018-11-28T12:11:39.654Z,99758.48
2018-11-28T12:14:09.202Z,99759.09
2018-11-28T12:16:39.124Z,99770.02
2018-11-28T12:19:08.711Z,99764.91
2018-11-28T12:21:38.363Z,99767.45
2018-11-28T12:24:07.952Z,99762.22
2018-11-28T12:26:37.753Z,99765.05
2018-11-28T12:29:07.638Z,99760.71
2018-11-28T12:31:37.221Z,99767.23
2018-11-28T12:34:06.925Z,99763.63
2018-11-28T12:36:36.631Z,99766.71
2018-11-28T12:39:09.596Z,99779.87
2018-11-28T12:41:39.198Z,99778.20
2018-11-28T12:44:08.924Z,99783.51
2018-11-28T12:46:38.632Z,99784.77
2018-11-28T12:49:08.353Z,99790.99
2018-11-28T12:51:37.992Z,99791.41
2018-11-28T12:54:07.621Z,99793.48
2018-11-28T12:56:37.294Z,99799.70
2018-11-28T12:59:06.816Z,99799.91
2018-11-28T13:01:36.362Z,99806.86
2018-11-28T13:04:06.377Z,99805.01
2018-11-28T13:06:35.888Z,99808.73
2018-11-28T13:09:06.328Z,99812.25
2018-11-28T13:11:35.824Z,99825.33
2018-11-28T13:14:05.594Z,99823.03
2018-11-28T13:16:35.070Z,99830.16
2018-11-28T13:19:04.616Z,99841.16
2018-11-28T13:21:34.099Z,99837.14
2018-11-28T13:24:03.633Z,99843.52
2018-11-28T13:26:33.176Z,99843.02
2018-11-28T13:29:02.728Z,99850.38
2018-11-28T13:31:32.287Z,99851.14
2018-11-28T13:34:01.881Z,99863.69
2018-11-28T13:36:31.400Z,99867.55
2018-11-28T13:39:00.961Z,99881.04
2018-11-28T13:41:30.472Z,99877.60
2018-11-28T13:43:59.970Z,99885.19
2018-11-28T13:46:29.572Z,99893.52
2018-11-28T13:48:59.124Z,99893.52
2018-11-28T13:51:28.612Z,99895.16
2018-11-28T13:53:58.785Z,99902.52
2018-11-28T13:56:58.255Z,99912.28
2018-11-28T13:58:57.777Z,99924.17
2018-11-28T14:01:27.332Z,99922.33
2018-11-28T14:03:56.825Z,99930.73
2018-11-28T14:06:26.338Z,99935.30
2018-11-28T14:08:55.856Z,99935.30
2018-11-28T14:11:25.415Z,99933.34
2018-11-28T14:13:54.926Z,99935.94
2018-11-28T14:16:24.481Z,99944.33
2018-11-28T14:18:54.061Z,99949.72
2018-11-28T14:21:23.602Z,99949.63
2018-11-28T14:23:53.168Z,99959.97
2018-11-28T14:26:22.645Z,99958.75
2018-11-28T14:28:53.037Z,99957.90
2018-11-28T14:31:22.569Z,99970.46
2018-11-28T14:33:52.217Z,99984.05
2018-11-28T14:36:21.724Z,99987.25
2018-11-28T14:38:51.330Z,99989.22
2018-11-28T14:41:20.801Z,99999.48
2018-11-28T14:43:50.345Z,100006.12
2018-11-28T14:46:19.884Z,99999.80
2018-11-28T14:48:50.342Z,100007.98
2018-11-28T14:51:19.877Z,100022.94
2018-11-28T14:53:49.731Z,100016.30
2018-11-28T14:56:19.322Z,100019.82
2018-11-28T14:58:48.856Z,100022.81
2018-11-28T15:01:18.484Z,100020.64
2018-11-28T15:03:48.041Z,100039.19
2018-11-28T15:06:23.646Z,100040.63
2018-11-28T15:08:57.249Z,100053.63
2018-11-28T15:11:26.845Z,100055.27
2018-11-28T15:13:56.364Z,100058.97
2018-11-28T15:16:25.918Z,100067.37
2018-11-28T15:18:55.430Z,100069.34
2018-11-28T15:21:25.028Z,100080.41
2018-11-28T15:23:54.590Z,100085.06
2018-11-28T15:26:24.211Z,100089.30
2018-11-28T15:28:53.826Z,100097.38
2018-11-28T15:31:24.143Z,100103.78
2018-11-28T15:33:53.201Z,100110.30
2018-11-28T15:36:22.755Z,100111.44
2018-11-28T15:38:52.274Z,100123.64
2018-11-28T15:41:21.831Z,100135.87
2018-11-28T15:43:51.394Z,100136.47
2018-11-28T15:46:20.966Z,100140.29
2018-11-28T15:48:50.522Z,100143.22
2018-11-28T15:51:20.031Z,100154.55
2018-11-28T15:53:49.713Z,100170.42
2018-11-28T15:56:19.308Z,100162.15
2018-11-28T15:58:48.825Z,100167.15
2018-11-28T16:01:18.417Z,100171.39
2018-11-28T16:03:47.916Z,100179.34
2018-11-28T16:06:17.466Z,100187.53
2018-11-28T16:08:47.105Z,100189.89
2018-11-28T16:11:18.189Z,100207.24
2018-11-28T16:13:47.730Z,100210.97
2018-11-28T16:16:17.303Z,100214.84
2018-11-28T16:18:46.881Z,100216.61
2018-11-28T16:21:16.456Z,100219.00
2018-11-28T16:23:45.976Z,100231.58
2018-11-28T16:26:15.548Z,100234.79
2018-11-28T16:28:45.093Z,100239.86
2018-11-28T16:31:14.593Z,100246.42
2018-11-28T16:33:44.105Z,100253.19
2018-11-28T16:36:13.636Z,100251.67
2018-11-28T16:38:44.140Z,100261.36
2018-11-28T16:41:13.642Z,100267.05
2018-11-28T16:43:43.253Z,100268.56
2018-11-28T16:46:13.585Z,100271.08
2018-11-28T16:48:43.124Z,100282.78
2018-11-28T16:51:12.605Z,100285.03
2018-11-28T16:53:42.176Z,100292.81
2018-11-28T16:56:11.692Z,100301.45
2018-11-28T16:58:41.233Z,100299.62
2018-11-28T17:01:10.757Z,100310.51
2018-11-28T17:03:40.284Z,100318.41
2018-11-28T17:06:09.760Z,100322.69
2018-11-28T17:08:39.300Z,100325.03
2018-11-28T17:11:08.833Z,100329.72
2018-11-28T17:13:38.308Z,100334.70
2018-11-28T17:16:07.871Z,100344.45
2018-11-28T17:18:37.344Z,100351.16
2018-11-28T17:21:06.993Z,100361.47
2018-11-28T17:23:36.503Z,100361.16
2018-11-28T17:26:06.120Z,100367.74
2018-11-28T17:28:35.662Z,100370.13
2018-11-28T17:31:05.276Z,100381.42
2018-11-28T17:33:34.793Z,100387.00
2018-11-28T17:36:04.288Z,100394.75
2018-11-28T17:38:33.958Z,100398.84
2018-11-28T17:41:03.460Z,100411.61
2018-11-28T17:43:32.985Z,100405.47
2018-11-28T17:46:02.464Z,100409.36
2018-11-28T17:48:32.064Z,100411.39
2018-11-28T17:51:01.540Z,100269.52
2018-11-28T17:53:31.017Z,100416.09
2018-11-28T17:56:00.520Z,100415.75
2018-11-28T17:58:30.059Z,100425.95
2018-11-28T18:00:59.613Z,100432.17
2018-11-28T18:03:29.134Z,100435.52
2018-11-28T18:05:58.654Z,100437.31
2018-11-28T18:08:28.156Z,100443.20
2018-11-28T18:11:09.278Z,100448.88
2018-11-28T18:13:39.576Z,100450.42
2018-11-28T18:16:08.504Z,100453.96
2018-11-28T18:18:38.057Z,100461.02
2018-11-28T18:21:07.769Z,100466.84
2018-11-28T18:23:37.291Z,100465.05
2018-11-28T18:26:09.060Z,100462.67
2018-11-28T18:28:38.608Z,100479.81
2018-11-28T18:31:08.166Z,100480.30
2018-11-28T18:33:37.720Z,100484.15
2018-11-28T18:36:07.300Z,100483.12
2018-11-28T18:38:36.885Z,100489.50
2018-11-28T18:41:06.932Z,100496.03
2018-11-28T18:43:37.044Z,100508.28
2018-11-28T18:46:07.341Z,100508.95
2018-11-28T18:48:36.869Z,100513.95
2018-11-28T18:51:06.645Z,100515.63
2018-11-28T18:53:36.148Z,100520.84
2018-11-28T18:56:05.698Z,100526.00
2018-11-28T18:58:35.209Z,100535.28
2018-11-28T19:01:04.716Z,100541.87
2018-11-28T19:03:34.221Z,100546.06
2018-11-28T19:06:03.793Z,100549.96
2018-11-28T19:08:33.298Z,100409.03
2018-11-28T19:11:03.231Z,100564.39
2018-11-28T19:13:32.349Z,100567.91
2018-11-28T19:16:01.868Z,100567.05
2018-11-28T19:18:31.375Z,100576.09
2018-11-28T19:21:00.944Z,100580.63
2018-11-28T19:23:30.408Z,100591.17
2018-11-28T19:25:59.875Z,100592.52
2018-11-28T19:28:29.344Z,100597.88
2018-11-28T19:30:58.869Z,100610.30
2018-11-28T19:33:28.336Z,100607.63
2018-11-28T19:35:57.869Z,100607.27
2018-11-28T19:38:27.372Z,100617.35
2018-11-28T19:40:59.656Z,100617.69
2018-11-28T19:43:29.234Z,100626.05
2018-11-28T19:45:58.765Z,100623.72
2018-11-28T19:48:28.262Z,100630.42
2018-11-28T19:50:57.808Z,100639.48
2018-11-28T19:53:27.276Z,100639.16
2018-11-28T19:55:56.772Z,100646.19
2018-11-28T19:58:26.269Z,100644.18
2018-11-28T20:00:55.828Z,100652.23
2018-11-28T20:03:25.360Z,100655.27
2018-11-28T20:05:54.920Z,100666.67
2018-11-28T20:08:24.396Z,100595.88
2018-11-28T20:10:53.988Z,100668.33
2018-11-28T20:13:23.507Z,100666.51
2018-11-28T20:15:53.557Z,100676.59
2018-11-28T20:18:23.104Z,100685.63
2018-11-28T20:20:52.613Z,100691.83
2018-11-28T20:23:22.089Z,100692.88
2018-11-28T20:25:51.905Z,100693.54
2018-11-28T20:28:21.430Z,100697.58
2018-11-28T20:30:50.972Z,100700.44
2018-11-28T20:33:20.477Z,100703.14
2018-11-28T20:35:50.480Z,100705.34
2018-11-28T20:38:24.489Z,100711.39
2018-11-28T20:40:54.001Z,100708.02
2018-11-28T20:43:23.492Z,100716.08
2018-11-28T20:45:53.036Z,100715.73
2018-11-28T20:48:22.504Z,100713.72
2018-11-28T20:50:52.569Z,100717.74
2018-11-28T20:53:22.664Z,100723.94
2018-11-28T20:55:52.187Z,100732.20
2018-11-28T20:58:21.672Z,100741.59
2018-11-28T21:00:51.197Z,100733.86
2018-11-28T21:03:20.764Z,100737.06
2018-11-28T21:05:50.307Z,100742.94
2018-11-28T21:08:19.840Z,100745.28
2018-11-28T21:10:49.357Z,100749.66
2018-11-28T21:13:18.893Z,100752.33
2018-11-28T21:15:48.416Z,100753.00
2018-11-28T21:18:17.972Z,100764.92
2018-11-28T21:20:47.685Z,100767.59
2018-11-28T21:23:18.600Z,100769.09
2018-11-28T21:25:48.861Z,100768.78
2018-11-28T21:28:18.398Z,100769.93
2018-11-28T21:30:48.014Z,100774.47
2018-11-28T21:33:17.564Z,100780.50
2018-11-28T21:35:49.628Z,100782.52
2018-11-28T21:38:19.154Z,100777.50
2018-11-28T21:40:48.682Z,100784.52
2018-11-28T21:43:18.184Z,100788.91
2018-11-28T21:45:47.698Z,100789.89
2018-11-28T21:48:17.291Z,100790.56
2018-11-28T21:50:46.827Z,100787.88
2018-11-28T21:53:16.355Z,100801.80
2018-11-28T21:55:45.822Z,100799.28
2018-11-28T21:58:15.405Z,100800.30
2018-11-28T22:00:44.950Z,100802.31
2018-11-28T22:03:14.436Z,100810.69
2018-11-28T22:05:43.944Z,100814.70
2018-11-28T22:08:13.403Z,100807.67
2018-11-28T22:10:42.934Z,100814.38
2018-11-28T22:13:12.473Z,100808.66
2018-11-28T22:15:41.981Z,100813.86
2018-11-28T22:18:12.024Z,100818.72
2018-11-28T22:20:41.026Z,100819.06
2018-11-28T22:23:11.098Z,100820.73
2018-11-28T22:25:40.644Z,100826.44
2018-11-28T22:28:10.128Z,100824.91
2018-11-28T22:30:39.656Z,100835.84
2018-11-28T22:33:09.190Z,100831.47
2018-11-28T22:35:38.656Z,100833.83
2018-11-28T22:38:08.144Z,100835.17
2018-11-28T22:40:37.674Z,100839.86
2018-11-28T22:43:07.140Z,100852.41
2018-11-28T22:45:36.709Z,100856.28
2018-11-28T22:48:06.300Z,100855.45
2018-11-28T22:50:35.825Z,100856.63
2018-11-28T22:53:05.333Z,100855.28
2018-11-28T22:55:34.820Z,100864.01
2018-11-28T22:58:04.322Z,100862.83
2018-11-28T23:00:38.892Z,100864.84
2018-11-28T23:03:09.578Z,100867.02
2018-11-28T23:05:44.285Z,100871.37
2018-11-28T23:08:14.908Z,100863.14
2018-11-28T23:10:44.473Z,100873.05
2018-11-28T23:13:14.874Z,100869.86
2018-11-28T23:15:44.379Z,100870.53
2018-11-28T23:18:20.428Z,100866.03
2018-11-28T23:20:49.980Z,100869.20
2018-11-28T23:23:19.461Z,100872.39
2018-11-28T23:25:49.028Z,100870.38
2018-11-28T23:28:18.516Z,100876.73
2018-11-28T23:30:48.009Z,100876.42
2018-11-28T23:33:17.506Z,100880.78
2018-11-28T23:35:46.996Z,100879.45
2018-11-28T23:38:16.473Z,100883.64
2018-11-28T23:40:45.962Z,100879.10
2018-11-28T23:43:15.616Z,100879.27
2018-11-28T23:45:45.087Z,100881.28
2018-11-28T23:48:14.595Z,100882.45
2018-11-28T23:50:44.068Z,100750.55
2018-11-28T23:53:13.662Z,100895.52
2018-11-28T23:55:43.144Z,100888.84
2018-11-28T23:58:12.660Z,100902.57
